sensor_id;sensor_type;location;lat;lon;timestamp;P1;durP1;ratioP1;P2;durP2;ratioP2
23206;SDS011;11773;52.570;13.052;2023-07-16T00:00:07;0.70;;;0.70;;
23206;SDS011;11773;52.570;13.052;2023-07-16T00:02:38;0.90;;;0.60;;
23206;SDS011;11773;52.570;13.052;2023-07-16T00:05:08;0.80;;;0.80;;
23206;SDS011;11773;52.570;13.052;2023-07-16T00:07:37;0.80;;;0.80;;
23206;SDS011;11773;52.570;13.052;2023-07-16T00:10:07;0.53;;;0.53;;
23206;SDS011;11773;52.570;13.052;2023-07-16T00:12:37;0.60;;;0.60;;
23206;SDS011;11773;52.570;13.052;2023-07-16T00:15:07;0.70;;;0.70;;
23206;SDS011;11773;52.570;13.052;2023-07-16T00:17:37;0.90;;;0.90;;
23206;SDS011;11773;52.570;13.052;2023-07-16T00:20:07;0.87;;;0.87;;
23206;SDS011;11773;52.570;13.052;2023-07-16T00:22:37;0.57;;;0.57;;
23206;SDS011;11773;52.570;13.052;2023-07-16T00:25:07;0.60;;;0.60;;
23206;SDS011;11773;52.570;13.052;2023-07-16T00:27:36;0.80;;;0.80;;
23206;SDS011;11773;52.570;13.052;2023-07-16T00:30:06;0.70;;;0.70;;
23206;SDS011;11773;52.570;13.052;2023-07-16T00:32:38;0.83;;;0.83;;
23206;SDS011;11773;52.570;13.052;2023-07-16T00:35:07;0.63;;;0.63;;
23206;SDS011;11773;52.570;13.052;2023-07-16T00:37:37;0.60;;;0.60;;
23206;SDS011;11773;52.570;13.052;2023-07-16T00:40:07;0.63;;;0.63;;
23206;SDS011;11773;52.570;13.052;2023-07-16T00:42:37;0.60;;;0.60;;
23206;SDS011;11773;52.570;13.052;2023-07-16T00:45:08;0.73;;;0.60;;
23206;SDS011;11773;52.570;13.052;2023-07-16T00:47:43;0.90;;;0.80;;
23206;SDS011;11773;52.570;13.052;2023-07-16T00:50:13;0.70;;;0.70;;
23206;SDS011;11773;52.570;13.052;2023-07-16T00:52:43;0.60;;;0.60;;
23206;SDS011;11773;52.570;13.052;2023-07-16T00:55:13;0.50;;;0.50;;
23206;SDS011;11773;52.570;13.052;2023-07-16T00:57:43;0.77;;;0.77;;
23206;SDS011;11773;52.570;13.052;2023-07-16T01:00:15;0.73;;;0.73;;
23206;SDS011;11773;52.570;13.052;2023-07-16T01:02:44;1.17;;;1.07;;
23206;SDS011;11773;52.570;13.052;2023-07-16T01:05:14;1.40;;;1.30;;
23206;SDS011;11773;52.570;13.052;2023-07-16T01:07:47;0.87;;;0.87;;
23206;SDS011;11773;52.570;13.052;2023-07-16T01:10:18;1.03;;;1.00;;
23206;SDS011;11773;52.570;13.052;2023-07-16T01:12:49;1.03;;;0.90;;
23206;SDS011;11773;52.570;13.052;2023-07-16T01:15:22;1.30;;;1.13;;
23206;SDS011;11773;52.570;13.052;2023-07-16T01:17:52;1.60;;;1.50;;
23206;SDS011;11773;52.570;13.052;2023-07-16T01:20:22;1.30;;;1.20;;
23206;SDS011;11773;52.570;13.052;2023-07-16T01:23:12;1.10;;;1.10;;
23206;SDS011;11773;52.570;13.052;2023-07-16T01:32:19;1.23;;;1.23;;
23206;SDS011;11773;52.570;13.052;2023-07-16T01:34:51;1.40;;;1.30;;
23206;SDS011;11773;52.570;13.052;2023-07-16T01:37:21;1.40;;;1.30;;
23206;SDS011;11773;52.570;13.052;2023-07-16T01:39:51;2.10;;;1.40;;
23206;SDS011;11773;52.570;13.052;2023-07-16T01:42:21;1.23;;;1.20;;
23206;SDS011;11773;52.570;13.052;2023-07-16T01:44:50;1.60;;;1.50;;
23206;SDS011;11773;52.570;13.052;2023-07-16T01:47:24;1.40;;;1.30;;
23206;SDS011;11773;52.570;13.052;2023-07-16T01:50:06;1.60;;;1.50;;
23206;SDS011;11773;52.570;13.052;2023-07-16T01:52:36;1.73;;;1.10;;
23206;SDS011;11773;52.570;13.052;2023-07-16T01:55:06;1.00;;;1.00;;
23206;SDS011;11773;52.570;13.052;2023-07-16T01:57:36;1.10;;;1.10;;
23206;SDS011;11773;52.570;13.052;2023-07-16T02:00:05;1.20;;;1.10;;
23206;SDS011;11773;52.570;13.052;2023-07-16T02:02:36;0.97;;;0.97;;
23206;SDS011;11773;52.570;13.052;2023-07-16T02:05:05;1.17;;;1.00;;
23206;SDS011;11773;52.570;13.052;2023-07-16T02:07:35;0.90;;;0.90;;
23206;SDS011;11773;52.570;13.052;2023-07-16T02:10:06;0.97;;;0.97;;
23206;SDS011;11773;52.570;13.052;2023-07-16T02:12:56;1.07;;;1.07;;
23206;SDS011;11773;52.570;13.052;2023-07-16T02:15:26;1.30;;;1.10;;
23206;SDS011;11773;52.570;13.052;2023-07-16T02:17:56;1.07;;;0.97;;
23206;SDS011;11773;52.570;13.052;2023-07-16T02:20:26;0.73;;;0.67;;
23206;SDS011;11773;52.570;13.052;2023-07-16T02:22:55;0.90;;;0.90;;
23206;SDS011;11773;52.570;13.052;2023-07-16T02:25:25;0.70;;;0.70;;
23206;SDS011;11773;52.570;13.052;2023-07-16T02:27:54;0.70;;;0.70;;
23206;SDS011;11773;52.570;13.052;2023-07-16T02:30:24;0.93;;;0.60;;
23206;SDS011;11773;52.570;13.052;2023-07-16T02:32:53;0.57;;;0.57;;
23206;SDS011;11773;52.570;13.052;2023-07-16T02:35:23;0.70;;;0.60;;
23206;SDS011;11773;52.570;13.052;2023-07-16T02:37:53;0.70;;;0.70;;
23206;SDS011;11773;52.570;13.052;2023-07-16T02:40:22;0.60;;;0.60;;
23206;SDS011;11773;52.570;13.052;2023-07-16T02:42:52;0.50;;;0.50;;
23206;SDS011;11773;52.570;13.052;2023-07-16T02:45:21;0.63;;;0.63;;
23206;SDS011;11773;52.570;13.052;2023-07-16T02:47:51;0.63;;;0.63;;
23206;SDS011;11773;52.570;13.052;2023-07-16T02:50:21;1.47;;;0.70;;
23206;SDS011;11773;52.570;13.052;2023-07-16T02:52:50;0.50;;;0.50;;
23206;SDS011;11773;52.570;13.052;2023-07-16T02:55:20;0.50;;;0.50;;
23206;SDS011;11773;52.570;13.052;2023-07-16T02:57:49;0.63;;;0.63;;
23206;SDS011;11773;52.570;13.052;2023-07-16T03:00:19;0.68;;;0.62;;
23206;SDS011;11773;52.570;13.052;2023-07-16T03:02:48;0.67;;;0.67;;
23206;SDS011;11773;52.570;13.052;2023-07-16T03:05:18;0.80;;;0.80;;
23206;SDS011;11773;52.570;13.052;2023-07-16T03:07:48;0.70;;;0.70;;
23206;SDS011;11773;52.570;13.052;2023-07-16T03:10:17;0.50;;;0.50;;
23206;SDS011;11773;52.570;13.052;2023-07-16T03:12:48;0.50;;;0.50;;
23206;SDS011;11773;52.570;13.052;2023-07-16T03:15:18;0.83;;;0.83;;
23206;SDS011;11773;52.570;13.052;2023-07-16T03:17:48;0.87;;;0.70;;
23206;SDS011;11773;52.570;13.052;2023-07-16T03:20:17;0.60;;;0.60;;
23206;SDS011;11773;52.570;13.052;2023-07-16T03:22:47;0.50;;;0.50;;
23206;SDS011;11773;52.570;13.052;2023-07-16T03:25:17;0.60;;;0.60;;
23206;SDS011;11773;52.570;13.052;2023-07-16T03:27:47;0.50;;;0.50;;
23206;SDS011;11773;52.570;13.052;2023-07-16T03:30:17;0.60;;;0.60;;
23206;SDS011;11773;52.570;13.052;2023-07-16T03:32:46;1.03;;;0.93;;
23206;SDS011;11773;52.570;13.052;2023-07-16T03:35:17;0.50;;;0.50;;
23206;SDS011;11773;52.570;13.052;2023-07-16T03:37:49;0.63;;;0.63;;
23206;SDS011;11773;52.570;13.052;2023-07-16T03:40:24;0.60;;;0.60;;
23206;SDS011;11773;52.570;13.052;2023-07-16T03:42:52;0.43;;;0.43;;
23206;SDS011;11773;52.570;13.052;2023-07-16T03:45:23;0.50;;;0.50;;
23206;SDS011;11773;52.570;13.052;2023-07-16T03:47:53;0.50;;;0.50;;
23206;SDS011;11773;52.570;13.052;2023-07-16T03:50:22;0.40;;;0.40;;
23206;SDS011;11773;52.570;13.052;2023-07-16T03:52:52;0.50;;;0.50;;
23206;SDS011;11773;52.570;13.052;2023-07-16T03:55:21;0.57;;;0.57;;
23206;SDS011;11773;52.570;13.052;2023-07-16T03:57:51;0.57;;;0.57;;
23206;SDS011;11773;52.570;13.052;2023-07-16T04:00:21;0.60;;;0.60;;
23206;SDS011;11773;52.570;13.052;2023-07-16T04:02:50;0.70;;;0.70;;
23206;SDS011;11773;52.570;13.052;2023-07-16T04:05:20;0.80;;;0.80;;
23206;SDS011;11773;52.570;13.052;2023-07-16T04:07:50;0.70;;;0.70;;
23206;SDS011;11773;52.570;13.052;2023-07-16T04:10:20;0.60;;;0.60;;
23206;SDS011;11773;52.570;13.052;2023-07-16T04:12:50;0.80;;;0.80;;
23206;SDS011;11773;52.570;13.052;2023-07-16T04:15:19;0.87;;;0.87;;
23206;SDS011;11773;52.570;13.052;2023-07-16T04:17:49;0.50;;;0.50;;
23206;SDS011;11773;52.570;13.052;2023-07-16T04:20:18;0.60;;;0.60;;
23206;SDS011;11773;52.570;13.052;2023-07-16T04:22:48;0.70;;;0.70;;
23206;SDS011;11773;52.570;13.052;2023-07-16T04:25:18;0.60;;;0.60;;
23206;SDS011;11773;52.570;13.052;2023-07-16T04:27:48;0.70;;;0.70;;
23206;SDS011;11773;52.570;13.052;2023-07-16T04:30:18;0.63;;;0.50;;
23206;SDS011;11773;52.570;13.052;2023-07-16T04:32:48;0.80;;;0.60;;
23206;SDS011;11773;52.570;13.052;2023-07-16T04:35:17;0.97;;;0.70;;
23206;SDS011;11773;52.570;13.052;2023-07-16T04:37:47;0.70;;;0.70;;
23206;SDS011;11773;52.570;13.052;2023-07-16T04:40:17;0.60;;;0.60;;
23206;SDS011;11773;52.570;13.052;2023-07-16T04:42:46;0.53;;;0.53;;
23206;SDS011;11773;52.570;13.052;2023-07-16T04:45:16;0.70;;;0.70;;
23206;SDS011;11773;52.570;13.052;2023-07-16T04:47:46;0.50;;;0.50;;
23206;SDS011;11773;52.570;13.052;2023-07-16T04:50:15;0.60;;;0.60;;
23206;SDS011;11773;52.570;13.052;2023-07-16T04:52:45;0.50;;;0.50;;
23206;SDS011;11773;52.570;13.052;2023-07-16T04:55:14;0.70;;;0.70;;
23206;SDS011;11773;52.570;13.052;2023-07-16T04:57:44;1.10;;;0.90;;
23206;SDS011;11773;52.570;13.052;2023-07-16T05:00:13;0.50;;;0.50;;
23206;SDS011;11773;52.570;13.052;2023-07-16T05:02:43;0.80;;;0.80;;
23206;SDS011;11773;52.570;13.052;2023-07-16T05:05:12;0.60;;;0.60;;
23206;SDS011;11773;52.570;13.052;2023-07-16T05:07:42;1.07;;;0.97;;
23206;SDS011;11773;52.570;13.052;2023-07-16T05:10:12;0.90;;;0.90;;
23206;SDS011;11773;52.570;13.052;2023-07-16T05:12:41;0.70;;;0.70;;
23206;SDS011;11773;52.570;13.052;2023-07-16T05:15:11;0.90;;;0.83;;
23206;SDS011;11773;52.570;13.052;2023-07-16T05:17:40;0.80;;;0.80;;
23206;SDS011;11773;52.570;13.052;2023-07-16T05:20:10;0.83;;;0.77;;
23206;SDS011;11773;52.570;13.052;2023-07-16T05:22:40;0.90;;;0.90;;
23206;SDS011;11773;52.570;13.052;2023-07-16T05:25:09;0.77;;;0.77;;
23206;SDS011;11773;52.570;13.052;2023-07-16T05:27:39;0.73;;;0.73;;
23206;SDS011;11773;52.570;13.052;2023-07-16T05:30:09;1.10;;;1.10;;
23206;SDS011;11773;52.570;13.052;2023-07-16T05:32:38;1.07;;;1.00;;
23206;SDS011;11773;52.570;13.052;2023-07-16T05:35:09;1.00;;;1.00;;
23206;SDS011;11773;52.570;13.052;2023-07-16T05:37:38;0.83;;;0.83;;
23206;SDS011;11773;52.570;13.052;2023-07-16T05:40:08;1.40;;;1.30;;
23206;SDS011;11773;52.570;13.052;2023-07-16T05:42:38;1.10;;;1.10;;
23206;SDS011;11773;52.570;13.052;2023-07-16T05:45:07;1.03;;;1.03;;
23206;SDS011;11773;52.570;13.052;2023-07-16T05:47:37;1.40;;;1.30;;
23206;SDS011;11773;52.570;13.052;2023-07-16T05:50:07;1.00;;;1.00;;
23206;SDS011;11773;52.570;13.052;2023-07-16T05:52:38;1.50;;;1.40;;
23206;SDS011;11773;52.570;13.052;2023-07-16T05:55:08;1.30;;;1.20;;
23206;SDS011;11773;52.570;13.052;2023-07-16T05:57:37;0.90;;;0.90;;
23206;SDS011;11773;52.570;13.052;2023-07-16T06:00:08;1.47;;;1.37;;
23206;SDS011;11773;52.570;13.052;2023-07-16T06:02:39;1.70;;;1.60;;
23206;SDS011;11773;52.570;13.052;2023-07-16T06:05:08;1.20;;;1.20;;
23206;SDS011;11773;52.570;13.052;2023-07-16T06:07:38;1.40;;;1.30;;
23206;SDS011;11773;52.570;13.052;2023-07-16T06:10:08;1.00;;;1.00;;
23206;SDS011;11773;52.570;13.052;2023-07-16T06:12:37;1.03;;;1.03;;
23206;SDS011;11773;52.570;13.052;2023-07-16T06:15:08;1.47;;;1.37;;
23206;SDS011;11773;52.570;13.052;2023-07-16T06:17:37;1.20;;;1.20;;
23206;SDS011;11773;52.570;13.052;2023-07-16T06:20:07;1.53;;;1.43;;
23206;SDS011;11773;52.570;13.052;2023-07-16T06:22:37;1.43;;;1.33;;
23206;SDS011;11773;52.570;13.052;2023-07-16T06:25:07;1.33;;;1.23;;
23206;SDS011;11773;52.570;13.052;2023-07-16T06:27:38;0.93;;;0.93;;
23206;SDS011;11773;52.570;13.052;2023-07-16T06:30:07;1.17;;;1.10;;
23206;SDS011;11773;52.570;13.052;2023-07-16T06:32:37;1.20;;;1.10;;
23206;SDS011;11773;52.570;13.052;2023-07-16T06:35:07;1.20;;;1.10;;
23206;SDS011;11773;52.570;13.052;2023-07-16T06:37:37;1.10;;;1.10;;
23206;SDS011;11773;52.570;13.052;2023-07-16T06:40:07;1.43;;;1.33;;
23206;SDS011;11773;52.570;13.052;2023-07-16T06:42:36;1.13;;;1.13;;
23206;SDS011;11773;52.570;13.052;2023-07-16T06:45:06;1.00;;;1.00;;
23206;SDS011;11773;52.570;13.052;2023-07-16T06:47:36;1.40;;;1.30;;
23206;SDS011;11773;52.570;13.052;2023-07-16T06:50:06;1.27;;;1.20;;
23206;SDS011;11773;52.570;13.052;2023-07-16T06:52:36;1.10;;;1.00;;
23206;SDS011;11773;52.570;13.052;2023-07-16T06:55:05;0.90;;;0.90;;
23206;SDS011;11773;52.570;13.052;2023-07-16T06:57:35;1.00;;;1.00;;
23206;SDS011;11773;52.570;13.052;2023-07-16T07:00:05;1.10;;;1.10;;
23206;SDS011;11773;52.570;13.052;2023-07-16T07:02:37;1.00;;;1.00;;
23206;SDS011;11773;52.570;13.052;2023-07-16T07:05:07;0.90;;;0.90;;
23206;SDS011;11773;52.570;13.052;2023-07-16T07:07:36;1.10;;;1.00;;
23206;SDS011;11773;52.570;13.052;2023-07-16T07:10:06;1.40;;;1.30;;
23206;SDS011;11773;52.570;13.052;2023-07-16T07:12:36;1.07;;;1.07;;
23206;SDS011;11773;52.570;13.052;2023-07-16T07:15:12;1.57;;;1.20;;
23206;SDS011;11773;52.570;13.052;2023-07-16T07:17:37;1.00;;;1.00;;
23206;SDS011;11773;52.570;13.052;2023-07-16T07:20:10;1.30;;;1.20;;
23206;SDS011;11773;52.570;13.052;2023-07-16T07:22:41;1.20;;;1.10;;
23206;SDS011;11773;52.570;13.052;2023-07-16T07:25:10;1.10;;;1.10;;
23206;SDS011;11773;52.570;13.052;2023-07-16T07:27:40;1.80;;;1.30;;
23206;SDS011;11773;52.570;13.052;2023-07-16T07:30:09;1.10;;;1.03;;
23206;SDS011;11773;52.570;13.052;2023-07-16T07:32:39;1.20;;;1.10;;
23206;SDS011;11773;52.570;13.052;2023-07-16T07:35:09;1.13;;;1.13;;
23206;SDS011;11773;52.570;13.052;2023-07-16T07:37:38;1.83;;;1.40;;
23206;SDS011;11773;52.570;13.052;2023-07-16T07:40:08;1.40;;;0.90;;
23206;SDS011;11773;52.570;13.052;2023-07-16T07:42:38;0.77;;;0.77;;
23206;SDS011;11773;52.570;13.052;2023-07-16T07:45:08;1.10;;;1.10;;
23206;SDS011;11773;52.570;13.052;2023-07-16T07:47:38;0.90;;;0.90;;
23206;SDS011;11773;52.570;13.052;2023-07-16T07:50:07;1.17;;;1.10;;
23206;SDS011;11773;52.570;13.052;2023-07-16T07:52:37;0.97;;;0.97;;
23206;SDS011;11773;52.570;13.052;2023-07-16T07:55:07;1.13;;;1.03;;
23206;SDS011;11773;52.570;13.052;2023-07-16T07:57:37;1.00;;;1.00;;
23206;SDS011;11773;52.570;13.052;2023-07-16T08:00:07;1.33;;;1.13;;
23206;SDS011;11773;52.570;13.052;2023-07-16T08:02:40;1.30;;;1.20;;
23206;SDS011;11773;52.570;13.052;2023-07-16T08:05:09;1.20;;;1.10;;
23206;SDS011;11773;52.570;13.052;2023-07-16T08:07:39;0.90;;;0.90;;
23206;SDS011;11773;52.570;13.052;2023-07-16T08:10:09;1.10;;;1.10;;
23206;SDS011;11773;52.570;13.052;2023-07-16T08:12:38;1.07;;;1.00;;
23206;SDS011;11773;52.570;13.052;2023-07-16T08:15:08;1.30;;;1.20;;
23206;SDS011;11773;52.570;13.052;2023-07-16T08:17:42;1.10;;;1.00;;
23206;SDS011;11773;52.570;13.052;2023-07-16T08:20:13;2.37;;;1.00;;
23206;SDS011;11773;52.570;13.052;2023-07-16T08:22:43;0.90;;;0.90;;
23206;SDS011;11773;52.570;13.052;2023-07-16T08:25:12;1.40;;;1.30;;
23206;SDS011;11773;52.570;13.052;2023-07-16T08:27:42;0.90;;;0.90;;
23206;SDS011;11773;52.570;13.052;2023-07-16T08:30:11;0.83;;;0.83;;
23206;SDS011;11773;52.570;13.052;2023-07-16T08:32:42;0.80;;;0.80;;
23206;SDS011;11773;52.570;13.052;2023-07-16T08:35:11;1.30;;;1.00;;
23206;SDS011;11773;52.570;13.052;2023-07-16T08:37:43;0.83;;;0.83;;
23206;SDS011;11773;52.570;13.052;2023-07-16T08:40:13;1.00;;;1.00;;
23206;SDS011;11773;52.570;13.052;2023-07-16T08:42:44;1.10;;;1.00;;
23206;SDS011;11773;52.570;13.052;2023-07-16T08:45:14;0.90;;;0.90;;
23206;SDS011;11773;52.570;13.052;2023-07-16T08:47:47;0.80;;;0.80;;
23206;SDS011;11773;52.570;13.052;2023-07-16T08:50:16;1.03;;;1.00;;
23206;SDS011;11773;52.570;13.052;2023-07-16T08:52:49;0.90;;;0.90;;
23206;SDS011;11773;52.570;13.052;2023-07-16T08:55:19;0.87;;;0.87;;
23206;SDS011;11773;52.570;13.052;2023-07-16T08:57:49;2.27;;;0.97;;
23206;SDS011;11773;52.570;13.052;2023-07-16T09:00:19;0.80;;;0.80;;
23206;SDS011;11773;52.570;13.052;2023-07-16T09:02:50;0.87;;;0.87;;
23206;SDS011;11773;52.570;13.052;2023-07-16T09:05:22;0.73;;;0.73;;
23206;SDS011;11773;52.570;13.052;2023-07-16T09:07:53;1.10;;;0.97;;
23206;SDS011;11773;52.570;13.052;2023-07-16T09:10:23;0.90;;;0.90;;
23206;SDS011;11773;52.570;13.052;2023-07-16T09:12:52;1.47;;;1.07;;
23206;SDS011;11773;52.570;13.052;2023-07-16T09:15:26;0.60;;;0.60;;
23206;SDS011;11773;52.570;13.052;2023-07-16T09:17:57;0.80;;;0.80;;
23206;SDS011;11773;52.570;13.052;2023-07-16T09:20:27;0.93;;;0.93;;
23206;SDS011;11773;52.570;13.052;2023-07-16T09:23:00;1.00;;;1.00;;
23206;SDS011;11773;52.570;13.052;2023-07-16T09:25:30;0.80;;;0.80;;
23206;SDS011;11773;52.570;13.052;2023-07-16T09:28:02;1.37;;;1.00;;
23206;SDS011;11773;52.570;13.052;2023-07-16T09:30:33;0.80;;;0.80;;
23206;SDS011;11773;52.570;13.052;2023-07-16T09:33:15;0.80;;;0.80;;
23206;SDS011;11773;52.570;13.052;2023-07-16T09:35:53;0.93;;;0.83;;
23206;SDS011;11773;52.570;13.052;2023-07-16T09:38:23;0.90;;;0.90;;
23206;SDS011;11773;52.570;13.052;2023-07-16T09:40:55;0.93;;;0.90;;
23206;SDS011;11773;52.570;13.052;2023-07-16T09:43:26;0.60;;;0.60;;
23206;SDS011;11773;52.570;13.052;2023-07-16T09:45:55;0.80;;;0.80;;
23206;SDS011;11773;52.570;13.052;2023-07-16T09:48:25;1.07;;;0.97;;
23206;SDS011;11773;52.570;13.052;2023-07-16T09:50:55;0.70;;;0.70;;
23206;SDS011;11773;52.570;13.052;2023-07-16T09:53:25;0.90;;;0.90;;
23206;SDS011;11773;52.570;13.052;2023-07-16T09:55:58;1.17;;;1.10;;
23206;SDS011;11773;52.570;13.052;2023-07-16T09:58:29;1.33;;;1.23;;
23206;SDS011;11773;52.570;13.052;2023-07-16T10:01:00;1.00;;;0.90;;
23206;SDS011;11773;52.570;13.052;2023-07-16T10:03:31;1.03;;;1.03;;
23206;SDS011;11773;52.570;13.052;2023-07-16T10:06:07;0.97;;;0.97;;
23206;SDS011;11773;52.570;13.052;2023-07-16T10:08:37;0.90;;;0.90;;
23206;SDS011;11773;52.570;13.052;2023-07-16T10:11:14;1.07;;;0.97;;
23206;SDS011;11773;52.570;13.052;2023-07-16T10:13:40;1.00;;;0.90;;
23206;SDS011;11773;52.570;13.052;2023-07-16T10:16:19;0.77;;;0.77;;
23206;SDS011;11773;52.570;13.052;2023-07-16T10:18:49;1.07;;;0.97;;
23206;SDS011;11773;52.570;13.052;2023-07-16T10:21:23;0.73;;;0.73;;
23206;SDS011;11773;52.570;13.052;2023-07-16T10:23:57;0.53;;;0.53;;
23206;SDS011;11773;52.570;13.052;2023-07-16T10:26:27;0.83;;;0.80;;
23206;SDS011;11773;52.570;13.052;2023-07-16T10:28:57;1.33;;;0.80;;
23206;SDS011;11773;52.570;13.052;2023-07-16T10:31:27;1.53;;;1.10;;
23206;SDS011;11773;52.570;13.052;2023-07-16T10:34:00;1.33;;;1.23;;
23206;SDS011;11773;52.570;13.052;2023-07-16T10:36:39;1.10;;;1.00;;
23206;SDS011;11773;52.570;13.052;2023-07-16T10:39:09;1.27;;;1.10;;
23206;SDS011;11773;52.570;13.052;2023-07-16T10:41:38;0.93;;;0.87;;
23206;SDS011;11773;52.570;13.052;2023-07-16T10:44:08;1.20;;;1.10;;
23206;SDS011;11773;52.570;13.052;2023-07-16T10:46:43;2.50;;;1.20;;
23206;SDS011;11773;52.570;13.052;2023-07-16T10:49:12;0.90;;;0.90;;
23206;SDS011;11773;52.570;13.052;2023-07-16T10:51:42;0.63;;;0.63;;
23206;SDS011;11773;52.570;13.052;2023-07-16T10:54:11;0.80;;;0.80;;
23206;SDS011;11773;52.570;13.052;2023-07-16T10:56:41;0.87;;;0.87;;
23206;SDS011;11773;52.570;13.052;2023-07-16T10:59:13;0.90;;;0.90;;
23206;SDS011;11773;52.570;13.052;2023-07-16T11:01:43;1.10;;;1.00;;
23206;SDS011;11773;52.570;13.052;2023-07-16T11:04:14;0.80;;;0.80;;
23206;SDS011;11773;52.570;13.052;2023-07-16T11:06:44;0.60;;;0.60;;
23206;SDS011;11773;52.570;13.052;2023-07-16T11:09:13;1.30;;;1.20;;
23206;SDS011;11773;52.570;13.052;2023-07-16T11:11:43;0.80;;;0.80;;
23206;SDS011;11773;52.570;13.052;2023-07-16T11:14:12;1.20;;;1.10;;
23206;SDS011;11773;52.570;13.052;2023-07-16T11:16:42;1.70;;;1.40;;
23206;SDS011;11773;52.570;13.052;2023-07-16T11:19:12;1.10;;;1.00;;
23206;SDS011;11773;52.570;13.052;2023-07-16T11:21:42;1.73;;;1.20;;
23206;SDS011;11773;52.570;13.052;2023-07-16T11:24:15;1.07;;;1.00;;
23206;SDS011;11773;52.570;13.052;2023-07-16T11:26:50;1.00;;;0.90;;
23206;SDS011;11773;52.570;13.052;2023-07-16T11:29:20;0.90;;;0.90;;
23206;SDS011;11773;52.570;13.052;2023-07-16T11:31:50;1.03;;;1.03;;
23206;SDS011;11773;52.570;13.052;2023-07-16T11:34:23;1.10;;;1.00;;
23206;SDS011;11773;52.570;13.052;2023-07-16T11:36:53;1.30;;;1.20;;
23206;SDS011;11773;52.570;13.052;2023-07-16T11:39:24;1.00;;;1.00;;
23206;SDS011;11773;52.570;13.052;2023-07-16T11:41:56;1.00;;;1.00;;
23206;SDS011;11773;52.570;13.052;2023-07-16T11:44:26;1.23;;;1.13;;
23206;SDS011;11773;52.570;13.052;2023-07-16T11:47:02;1.43;;;1.33;;
23206;SDS011;11773;52.570;13.052;2023-07-16T11:49:32;1.27;;;1.17;;
23206;SDS011;11773;52.570;13.052;2023-07-16T11:52:02;1.63;;;1.53;;
23206;SDS011;11773;52.570;13.052;2023-07-16T11:54:32;1.30;;;1.20;;
23206;SDS011;11773;52.570;13.052;2023-07-16T11:57:01;1.17;;;1.07;;
23206;SDS011;11773;52.570;13.052;2023-07-16T11:59:31;1.40;;;1.30;;
23206;SDS011;11773;52.570;13.052;2023-07-16T12:02:01;0.83;;;0.83;;
23206;SDS011;11773;52.570;13.052;2023-07-16T12:04:31;0.90;;;0.90;;
23206;SDS011;11773;52.570;13.052;2023-07-16T12:07:01;0.80;;;0.80;;
23206;SDS011;11773;52.570;13.052;2023-07-16T12:09:30;0.93;;;0.93;;
23206;SDS011;11773;52.570;13.052;2023-07-16T12:12:00;1.03;;;0.90;;
23206;SDS011;11773;52.570;13.052;2023-07-16T12:14:30;1.77;;;1.10;;
23206;SDS011;11773;52.570;13.052;2023-07-16T12:17:00;1.00;;;0.90;;
23206;SDS011;11773;52.570;13.052;2023-07-16T12:19:29;1.03;;;1.00;;
23206;SDS011;11773;52.570;13.052;2023-07-16T12:21:59;0.80;;;0.80;;
23206;SDS011;11773;52.570;13.052;2023-07-16T12:24:30;1.00;;;0.90;;
23206;SDS011;11773;52.570;13.052;2023-07-16T12:26:59;0.93;;;0.90;;
23206;SDS011;11773;52.570;13.052;2023-07-16T12:29:29;1.43;;;0.93;;
23206;SDS011;11773;52.570;13.052;2023-07-16T12:31:58;2.07;;;1.10;;
23206;SDS011;11773;52.570;13.052;2023-07-16T12:34:28;1.30;;;1.20;;
23206;SDS011;11773;52.570;13.052;2023-07-16T12:36:58;1.10;;;1.07;;
23206;SDS011;11773;52.570;13.052;2023-07-16T12:39:27;0.90;;;0.90;;
23206;SDS011;11773;52.570;13.052;2023-07-16T12:41:57;1.13;;;1.10;;
23206;SDS011;11773;52.570;13.052;2023-07-16T12:44:27;1.00;;;1.00;;
23206;SDS011;11773;52.570;13.052;2023-07-16T12:46:57;1.60;;;1.30;;
23206;SDS011;11773;52.570;13.052;2023-07-16T12:49:27;1.20;;;1.10;;
23206;SDS011;11773;52.570;13.052;2023-07-16T12:51:56;1.10;;;0.90;;
23206;SDS011;11773;52.570;13.052;2023-07-16T12:54:26;0.90;;;0.90;;
23206;SDS011;11773;52.570;13.052;2023-07-16T12:56:56;1.20;;;0.90;;
23206;SDS011;11773;52.570;13.052;2023-07-16T12:59:25;1.43;;;1.33;;
23206;SDS011;11773;52.570;13.052;2023-07-16T13:01:55;2.63;;;1.20;;
23206;SDS011;11773;52.570;13.052;2023-07-16T13:04:25;0.73;;;0.73;;
23206;SDS011;11773;52.570;13.052;2023-07-16T13:06:54;1.00;;;1.00;;
23206;SDS011;11773;52.570;13.052;2023-07-16T13:09:24;0.63;;;0.63;;
23206;SDS011;11773;52.570;13.052;2023-07-16T13:11:54;1.23;;;1.20;;
23206;SDS011;11773;52.570;13.052;2023-07-16T13:14:24;0.90;;;0.90;;
23206;SDS011;11773;52.570;13.052;2023-07-16T13:16:54;1.47;;;1.20;;
23206;SDS011;11773;52.570;13.052;2023-07-16T13:19:24;1.20;;;1.20;;
23206;SDS011;11773;52.570;13.052;2023-07-16T13:21:53;1.10;;;1.00;;
23206;SDS011;11773;52.570;13.052;2023-07-16T13:24:23;0.80;;;0.80;;
23206;SDS011;11773;52.570;13.052;2023-07-16T13:26:53;1.20;;;1.10;;
23206;SDS011;11773;52.570;13.052;2023-07-16T13:29:22;0.90;;;0.90;;
23206;SDS011;11773;52.570;13.052;2023-07-16T13:31:52;1.07;;;0.77;;
23206;SDS011;11773;52.570;13.052;2023-07-16T13:34:21;1.07;;;1.07;;
23206;SDS011;11773;52.570;13.052;2023-07-16T13:36:51;0.73;;;0.73;;
23206;SDS011;11773;52.570;13.052;2023-07-16T13:39:20;1.00;;;0.90;;
23206;SDS011;11773;52.570;13.052;2023-07-16T13:41:50;1.20;;;1.10;;
23206;SDS011;11773;52.570;13.052;2023-07-16T13:44:21;1.33;;;1.23;;
23206;SDS011;11773;52.570;13.052;2023-07-16T13:46:51;0.93;;;0.90;;
23206;SDS011;11773;52.570;13.052;2023-07-16T13:49:21;1.20;;;1.10;;
23206;SDS011;11773;52.570;13.052;2023-07-16T13:51:51;0.60;;;0.60;;
23206;SDS011;11773;52.570;13.052;2023-07-16T13:54:20;1.30;;;1.00;;
23206;SDS011;11773;52.570;13.052;2023-07-16T13:56:50;1.20;;;1.10;;
23206;SDS011;11773;52.570;13.052;2023-07-16T13:59:20;1.00;;;0.93;;
23206;SDS011;11773;52.570;13.052;2023-07-16T14:01:58;0.77;;;0.77;;
23206;SDS011;11773;52.570;13.052;2023-07-16T14:04:29;0.80;;;0.80;;
23206;SDS011;11773;52.570;13.052;2023-07-16T14:06:59;0.80;;;0.80;;
23206;SDS011;11773;52.570;13.052;2023-07-16T14:09:28;0.90;;;0.90;;
23206;SDS011;11773;52.570;13.052;2023-07-16T14:11:58;0.90;;;0.90;;
23206;SDS011;11773;52.570;13.052;2023-07-16T14:14:28;0.87;;;0.87;;
23206;SDS011;11773;52.570;13.052;2023-07-16T14:16:57;0.60;;;0.60;;
23206;SDS011;11773;52.570;13.052;2023-07-16T14:19:27;0.93;;;0.93;;
23206;SDS011;11773;52.570;13.052;2023-07-16T14:21:57;1.23;;;1.13;;
23206;SDS011;11773;52.570;13.052;2023-07-16T14:24:26;1.27;;;1.10;;
23206;SDS011;11773;52.570;13.052;2023-07-16T14:26:57;1.20;;;1.00;;
23206;SDS011;11773;52.570;13.052;2023-07-16T14:29:28;1.33;;;1.10;;
23206;SDS011;11773;52.570;13.052;2023-07-16T14:31:58;0.90;;;0.90;;
23206;SDS011;11773;52.570;13.052;2023-07-16T14:34:28;0.90;;;0.90;;
23206;SDS011;11773;52.570;13.052;2023-07-16T14:36:57;0.80;;;0.80;;
23206;SDS011;11773;52.570;13.052;2023-07-16T14:39:29;1.50;;;1.00;;
23206;SDS011;11773;52.570;13.052;2023-07-16T14:41:58;0.80;;;0.80;;
23206;SDS011;11773;52.570;13.052;2023-07-16T14:44:30;1.27;;;1.17;;
23206;SDS011;11773;52.570;13.052;2023-07-16T14:47:00;0.63;;;0.63;;
23206;SDS011;11773;52.570;13.052;2023-07-16T14:49:31;1.10;;;1.00;;
23206;SDS011;11773;52.570;13.052;2023-07-16T14:52:00;0.83;;;0.80;;
23206;SDS011;11773;52.570;13.052;2023-07-16T14:54:30;1.47;;;1.03;;
23206;SDS011;11773;52.570;13.052;2023-07-16T14:57:01;1.00;;;0.90;;